createdAt,value
2024-03-26T00:00:42.931Z,542.00
2024-03-26T00:01:43.037Z,542.00
2024-03-26T00:02:43.139Z,543.00
2024-03-26T00:03:43.219Z,541.00
2024-03-26T00:04:43.328Z,539.00
2024-03-26T00:05:43.456Z,542.00
2024-03-26T00:06:43.564Z,542.00
2024-03-26T00:07:43.673Z,543.00
2024-03-26T00:08:43.818Z,543.00
2024-03-26T00:09:43.908Z,542.00
2024-03-26T00:10:44.072Z,540.00
2024-03-26T00:11:44.147Z,538.00
2024-03-26T00:12:44.239Z,538.00
2024-03-26T00:13:44.348Z,538.00
2024-03-26T00:14:44.444Z,537.00
2024-03-26T00:15:44.503Z,539.00
2024-03-26T00:16:45.664Z,538.00
2024-03-26T00:17:44.740Z,537.00
2024-03-26T00:18:44.831Z,534.00
2024-03-26T00:19:44.969Z,534.00
2024-03-26T00:20:45.099Z,536.00
2024-03-26T00:21:45.185Z,534.00
2024-03-26T00:22:45.297Z,539.00
2024-03-26T00:23:45.406Z,538.00
2024-03-26T00:24:45.510Z,539.00
2024-03-26T00:25:45.650Z,540.00
2024-03-26T00:26:45.765Z,537.00
2024-03-26T00:27:45.841Z,533.00
2024-03-26T00:28:45.957Z,530.00
2024-03-26T00:29:46.128Z,530.00
2024-03-26T00:30:46.170Z,531.00
2024-03-26T00:31:46.247Z,532.00
2024-03-26T00:32:46.347Z,531.00
2024-03-26T00:33:46.466Z,531.00
2024-03-26T00:34:46.539Z,531.00
2024-03-26T00:35:46.648Z,530.00
2024-03-26T00:36:46.774Z,528.00
2024-03-26T00:37:46.886Z,528.00
2024-03-26T00:38:47.008Z,526.00
2024-03-26T00:39:47.119Z,527.00
2024-03-26T00:40:47.251Z,527.00
2024-03-26T00:41:47.372Z,527.00
2024-03-26T00:42:48.165Z,527.00
2024-03-26T00:43:47.592Z,528.00
2024-03-26T00:44:47.712Z,527.00
2024-03-26T00:45:47.840Z,525.00
2024-03-26T00:46:47.928Z,523.00
2024-03-26T00:47:48.023Z,522.00
2024-03-26T00:48:48.123Z,523.00
2024-03-26T00:49:48.229Z,529.00
2024-03-26T00:50:48.307Z,531.00
2024-03-26T00:51:48.456Z,531.00
2024-03-26T00:52:48.524Z,533.00
2024-03-26T00:53:48.636Z,534.00
2024-03-26T00:54:48.746Z,536.00
2024-03-26T00:55:48.876Z,535.00
2024-03-26T00:56:48.967Z,535.00
2024-03-26T00:57:49.075Z,536.00
2024-03-26T00:58:49.211Z,536.00
2024-03-26T00:59:49.321Z,538.00
2024-03-26T01:00:49.434Z,535.00
2024-03-26T01:01:49.548Z,537.00
2024-03-26T01:02:49.596Z,540.00
2024-03-26T01:03:49.713Z,541.00
2024-03-26T01:04:49.764Z,539.00
2024-03-26T01:05:49.847Z,537.00
2024-03-26T01:06:49.980Z,533.00
2024-03-26T01:07:50.093Z,533.00
2024-03-26T01:08:50.205Z,536.00
2024-03-26T01:09:50.317Z,535.00
2024-03-26T01:10:50.430Z,535.00
2024-03-26T01:11:50.533Z,536.00
2024-03-26T01:12:50.655Z,537.00
2024-03-26T01:13:51.720Z,538.00
2024-03-26T01:14:50.862Z,541.00
2024-03-26T01:15:50.968Z,543.00
2024-03-26T01:16:51.034Z,543.00
2024-03-26T01:17:51.152Z,544.00
2024-03-26T01:18:51.253Z,540.00
2024-03-26T01:19:51.320Z,537.00
2024-03-26T01:20:51.435Z,539.00
2024-03-26T01:21:51.550Z,535.00
2024-03-26T01:22:51.666Z,535.00
2024-03-26T01:23:51.767Z,535.00
2024-03-26T01:24:51.892Z,534.00
2024-03-26T01:25:52.013Z,532.00
2024-03-26T01:26:52.115Z,532.00
2024-03-26T01:27:52.232Z,532.00
2024-03-26T01:28:52.340Z,532.00
2024-03-26T01:29:52.395Z,531.00
2024-03-26T01:30:52.516Z,531.00
2024-03-26T01:31:52.571Z,532.00
2024-03-26T01:32:52.622Z,533.00
2024-03-26T01:33:52.710Z,533.00
2024-03-26T01:34:52.797Z,533.00
2024-03-26T01:35:52.917Z,535.00
2024-03-26T01:36:53.050Z,533.00
2024-03-26T01:37:53.129Z,535.00
2024-03-26T01:38:53.234Z,534.00
2024-03-26T01:39:53.333Z,533.00
2024-03-26T01:40:53.438Z,532.00
2024-03-26T01:41:53.532Z,532.00
2024-03-26T01:42:53.603Z,533.00
2024-03-26T01:43:53.650Z,533.00
2024-03-26T01:44:53.717Z,535.00
2024-03-26T01:45:53.837Z,536.00
2024-03-26T01:46:53.970Z,537.00
2024-03-26T01:47:54.065Z,537.00
2024-03-26T01:48:54.312Z,535.00
2024-03-26T01:49:54.283Z,536.00
2024-03-26T01:50:54.391Z,535.00
2024-03-26T01:51:54.515Z,534.00
2024-03-26T01:52:54.598Z,535.00
2024-03-26T01:53:54.677Z,535.00
2024-03-26T01:54:54.762Z,536.00
2024-03-26T01:55:54.838Z,538.00
2024-03-26T01:56:54.904Z,540.00
2024-03-26T01:57:54.977Z,539.00
2024-03-26T01:58:55.062Z,538.00
2024-03-26T01:59:55.169Z,536.00
2024-03-26T02:00:55.272Z,537.00
2024-03-26T02:01:55.374Z,535.00
2024-03-26T02:02:55.493Z,535.00
2024-03-26T02:03:55.609Z,535.00
2024-03-26T02:04:55.718Z,538.00
2024-03-26T02:05:55.813Z,538.00
2024-03-26T02:06:55.947Z,538.00
2024-03-26T02:07:56.026Z,538.00
2024-03-26T02:08:56.079Z,537.00
2024-03-26T02:09:56.194Z,537.00
2024-03-26T02:10:56.260Z,538.00
2024-03-26T02:11:56.313Z,538.00
2024-03-26T02:12:56.401Z,539.00
2024-03-26T02:13:56.481Z,537.00
2024-03-26T02:14:56.626Z,538.00
2024-03-26T02:15:56.723Z,538.00
2024-03-26T02:16:56.843Z,541.00
2024-03-26T02:17:56.965Z,541.00
2024-03-26T02:18:57.104Z,543.00
2024-03-26T02:19:57.226Z,543.00
2024-03-26T02:20:58.231Z,545.00
2024-03-26T02:21:57.450Z,544.00
2024-03-26T02:22:57.514Z,544.00
2024-03-26T02:23:57.593Z,543.00
2024-03-26T02:24:57.674Z,544.00
2024-03-26T02:25:57.713Z,543.00
2024-03-26T02:26:57.793Z,539.00
2024-03-26T02:27:57.851Z,538.00
2024-03-26T02:28:57.964Z,539.00
2024-03-26T02:29:58.056Z,540.00
2024-03-26T02:30:58.182Z,538.00
2024-03-26T02:31:58.300Z,537.00
2024-03-26T02:32:58.431Z,536.00
2024-03-26T02:33:58.538Z,536.00
2024-03-26T02:34:58.669Z,536.00
2024-03-26T02:35:58.771Z,538.00
2024-03-26T02:36:58.837Z,538.00
2024-03-26T02:37:58.935Z,537.00
2024-03-26T02:38:58.982Z,539.00
2024-03-26T02:39:59.060Z,540.00
2024-03-26T02:40:59.122Z,541.00
2024-03-26T02:41:59.251Z,543.00
2024-03-26T02:42:59.331Z,542.00
2024-03-26T02:43:59.449Z,545.00
2024-03-26T02:44:59.565Z,546.00
2024-03-26T02:45:59.687Z,547.00
2024-03-26T02:46:59.803Z,549.00
2024-03-26T02:47:59.865Z,547.00
2024-03-26T02:48:59.926Z,544.00
2024-03-26T02:50:00.017Z,540.00
2024-03-26T02:51:00.080Z,541.00
2024-03-26T02:52:00.136Z,541.00
2024-03-26T02:53:00.233Z,543.00
2024-03-26T02:54:00.380Z,545.00
2024-03-26T02:55:00.442Z,544.00
2024-03-26T02:56:00.583Z,544.00
2024-03-26T02:57:00.660Z,545.00
2024-03-26T02:58:00.809Z,543.00
2024-03-26T02:59:00.877Z,541.00
2024-03-26T03:00:00.935Z,539.00
2024-03-26T03:01:00.998Z,539.00
2024-03-26T03:02:01.043Z,540.00
2024-03-26T03:03:01.191Z,540.00
2024-03-26T03:04:01.378Z,542.00
2024-03-26T03:05:01.403Z,543.00
2024-03-26T03:06:01.465Z,544.00
2024-03-26T03:07:01.547Z,542.00
2024-03-26T03:08:01.780Z,542.00
2024-03-26T03:09:01.780Z,543.00
2024-03-26T03:10:01.824Z,545.00
2024-03-26T03:11:01.855Z,546.00
2024-03-26T03:12:01.923Z,547.00
2024-03-26T03:13:01.995Z,549.00
2024-03-26T03:14:02.065Z,550.00
2024-03-26T03:15:02.165Z,547.00
2024-03-26T03:16:02.270Z,545.00
2024-03-26T03:17:02.389Z,544.00
2024-03-26T03:18:02.490Z,544.00
2024-03-26T03:19:02.581Z,546.00
2024-03-26T03:20:02.734Z,544.00
2024-03-26T03:21:02.744Z,540.00
2024-03-26T03:22:02.796Z,539.00
2024-03-26T03:23:02.858Z,537.00
2024-03-26T03:24:02.940Z,537.00
2024-03-26T03:25:03.029Z,539.00
2024-03-26T03:26:03.159Z,540.00
2024-03-26T03:27:03.272Z,541.00
2024-03-26T03:28:03.389Z,541.00
2024-03-26T03:29:03.499Z,539.00
2024-03-26T03:30:03.596Z,539.00
2024-03-26T03:31:03.713Z,542.00
2024-03-26T03:32:03.817Z,541.00
2024-03-26T03:33:03.906Z,541.00
2024-03-26T03:34:03.953Z,542.00
2024-03-26T03:35:04.041Z,542.00
2024-03-26T03:36:04.111Z,540.00
2024-03-26T03:37:04.161Z,540.00
2024-03-26T03:38:04.220Z,541.00
2024-03-26T03:39:04.345Z,544.00
2024-03-26T03:40:04.466Z,544.00
2024-03-26T03:41:04.556Z,546.00
2024-03-26T03:42:04.655Z,547.00
2024-03-26T03:43:04.761Z,548.00
2024-03-26T03:44:04.863Z,546.00
2024-03-26T03:45:04.985Z,545.00
2024-03-26T03:46:05.096Z,545.00
2024-03-26T03:47:05.191Z,544.00
2024-03-26T03:48:05.276Z,543.00
2024-03-26T03:49:05.342Z,543.00
2024-03-26T03:50:05.404Z,543.00
2024-03-26T03:51:05.466Z,544.00
2024-03-26T03:52:05.511Z,542.00
2024-03-26T03:53:05.576Z,542.00
2024-03-26T03:54:05.660Z,543.00
2024-03-26T03:55:05.787Z,543.00
2024-03-26T03:56:10.861Z,543.00
2024-03-26T03:57:05.853Z,542.00
2024-03-26T03:58:05.861Z,543.00
2024-03-26T03:59:05.865Z,545.00
2024-03-26T04:00:05.913Z,545.00
2024-03-26T04:01:05.884Z,545.00
2024-03-26T04:02:05.877Z,542.00
2024-03-26T04:03:05.900Z,540.00
2024-03-26T04:04:05.994Z,540.00
2024-03-26T04:05:06.016Z,542.00
2024-03-26T04:06:06.068Z,545.00
2024-03-26T04:07:06.126Z,544.00
2024-03-26T04:08:06.195Z,544.00
2024-03-26T04:09:06.292Z,543.00
2024-03-26T04:10:06.411Z,542.00
2024-03-26T04:11:06.511Z,539.00
2024-03-26T04:12:06.612Z,541.00
2024-03-26T04:13:06.725Z,541.00
2024-03-26T04:14:06.836Z,542.00
2024-03-26T04:15:06.947Z,543.00
2024-03-26T04:16:06.999Z,544.00
2024-03-26T04:17:07.062Z,546.00
2024-03-26T04:18:07.765Z,545.00
2024-03-26T04:19:07.150Z,544.00
2024-03-26T04:20:07.181Z,543.00
2024-03-26T04:21:07.241Z,545.00
2024-03-26T04:22:07.251Z,542.00
2024-03-26T04:23:07.302Z,540.00
2024-03-26T04:24:07.316Z,540.00
2024-03-26T04:25:07.332Z,537.00
2024-03-26T04:26:07.366Z,538.00
2024-03-26T04:27:07.381Z,537.00
2024-03-26T04:28:07.393Z,538.00
2024-03-26T04:29:07.432Z,539.00
2024-03-26T04:30:07.554Z,538.00
2024-03-26T04:31:07.608Z,539.00
2024-03-26T04:32:14.859Z,540.00
2024-03-26T04:33:14.851Z,538.00
2024-03-26T04:34:14.858Z,536.00
2024-03-26T04:35:14.872Z,533.00
2024-03-26T04:36:14.858Z,533.00
2024-03-26T04:37:14.862Z,534.00
2024-03-26T04:38:14.868Z,531.00
2024-03-26T04:39:14.873Z,533.00
2024-03-26T04:40:14.887Z,535.00
2024-03-26T04:41:14.878Z,536.00
2024-03-26T04:42:14.867Z,534.00
2024-03-26T04:43:14.862Z,532.00
2024-03-26T04:44:14.907Z,532.00
2024-03-26T04:45:14.962Z,532.00
2024-03-26T04:46:14.996Z,531.00
2024-03-26T04:47:15.003Z,532.00
2024-03-26T04:48:15.012Z,533.00
2024-03-26T04:49:15.027Z,534.00
2024-03-26T04:50:15.017Z,535.00
2024-03-26T04:51:15.021Z,533.00
2024-03-26T04:52:15.031Z,532.00
2024-03-26T04:53:15.023Z,532.00
2024-03-26T04:54:15.030Z,530.00
2024-03-26T04:55:15.034Z,531.00
2024-03-26T04:56:15.032Z,532.00
2024-03-26T04:57:15.027Z,533.00
2024-03-26T04:58:15.031Z,533.00
2024-03-26T04:59:15.042Z,533.00
2024-03-26T05:00:15.027Z,535.00
2024-03-26T05:01:38.688Z,537.00
2024-03-26T05:02:15.296Z,535.00
2024-03-26T05:03:15.315Z,539.00
2024-03-26T05:04:15.348Z,536.00
2024-03-26T05:05:15.392Z,535.00
2024-03-26T05:06:15.427Z,535.00
2024-03-26T05:07:15.468Z,533.00
2024-03-26T05:08:15.506Z,536.00
2024-03-26T05:09:15.546Z,536.00
2024-03-26T05:10:15.595Z,536.00
2024-03-26T05:11:15.597Z,539.00
2024-03-26T05:12:15.675Z,539.00
2024-03-26T05:13:15.776Z,536.00
2024-03-26T05:14:15.869Z,535.00
2024-03-26T05:15:15.967Z,538.00
2024-03-26T05:16:16.041Z,537.00
2024-03-26T05:17:16.119Z,537.00
2024-03-26T05:18:16.226Z,538.00
2024-03-26T05:19:16.302Z,538.00
2024-03-26T05:20:16.342Z,536.00
2024-03-26T05:21:16.396Z,535.00
2024-03-26T05:22:16.467Z,535.00
2024-03-26T05:23:16.502Z,532.00
2024-03-26T05:24:16.569Z,535.00
2024-03-26T05:25:16.649Z,538.00
2024-03-26T05:26:16.753Z,540.00
2024-03-26T05:27:16.832Z,540.00
2024-03-26T05:28:16.940Z,541.00
2024-03-26T05:29:17.009Z,542.00
2024-03-26T05:30:17.114Z,540.00
2024-03-26T05:31:17.195Z,540.00
2024-03-26T05:32:17.232Z,540.00
2024-03-26T05:33:17.274Z,538.00
2024-03-26T05:34:17.321Z,536.00
2024-03-26T05:35:17.364Z,534.00
2024-03-26T05:36:17.455Z,534.00
2024-03-26T05:37:17.530Z,535.00
2024-03-26T05:38:17.619Z,532.00
2024-03-26T05:39:17.724Z,533.00
2024-03-26T05:40:17.808Z,535.00
2024-03-26T05:41:17.883Z,535.00
2024-03-26T05:42:17.978Z,536.00
2024-03-26T05:43:18.125Z,537.00
2024-03-26T05:44:18.138Z,534.00
2024-03-26T05:45:18.242Z,531.00
2024-03-26T05:46:18.296Z,533.00
2024-03-26T05:47:18.360Z,534.00
2024-03-26T05:48:18.404Z,534.00
2024-03-26T05:49:18.448Z,533.00
2024-03-26T05:50:18.522Z,532.00
2024-03-26T05:51:18.591Z,535.00
2024-03-26T05:52:18.675Z,537.00
2024-03-26T05:53:18.771Z,537.00
2024-03-26T05:54:18.861Z,539.00
2024-03-26T05:55:18.954Z,540.00
2024-03-26T05:56:19.044Z,540.00
2024-03-26T05:57:19.129Z,539.00
2024-03-26T05:58:19.183Z,536.00
2024-03-26T05:59:19.267Z,533.00
2024-03-26T06:00:19.313Z,532.00
2024-03-26T06:01:19.355Z,533.00
2024-03-26T06:02:19.419Z,533.00
2024-03-26T06:03:19.499Z,534.00
2024-03-26T06:04:19.601Z,533.00
2024-03-26T06:05:19.669Z,533.00
2024-03-26T06:06:19.750Z,535.00
2024-03-26T06:07:19.830Z,537.00
2024-03-26T06:08:19.935Z,537.00
2024-03-26T06:09:19.982Z,537.00
2024-03-26T06:10:20.030Z,539.00
2024-03-26T06:11:20.092Z,539.00
2024-03-26T06:12:20.193Z,540.00
2024-03-26T06:13:20.256Z,539.00
2024-03-26T06:14:20.307Z,542.00
2024-03-26T06:15:20.385Z,541.00
2024-03-26T06:16:20.491Z,540.00
2024-03-26T06:17:20.540Z,540.00
2024-03-26T06:18:20.626Z,539.00
2024-03-26T06:19:20.703Z,539.00
2024-03-26T06:20:20.810Z,537.00
2024-03-26T06:21:20.903Z,536.00
2024-03-26T06:22:20.942Z,537.00
2024-03-26T06:23:20.991Z,537.00
2024-03-26T06:24:21.074Z,537.00
2024-03-26T06:25:21.202Z,535.00
2024-03-26T06:26:21.204Z,534.00
2024-03-26T06:27:21.261Z,532.00
2024-03-26T06:28:21.346Z,531.00
2024-03-26T06:29:21.525Z,531.00
2024-03-26T06:30:21.565Z,530.00
2024-03-26T06:31:21.602Z,528.00
2024-03-26T06:32:21.667Z,529.00
2024-03-26T06:33:24.347Z,532.00
2024-03-26T06:34:21.751Z,535.00
2024-03-26T06:35:21.756Z,538.00
2024-03-26T06:36:21.809Z,536.00
2024-03-26T06:37:21.759Z,539.00
2024-03-26T06:38:21.764Z,543.00
2024-03-26T06:39:21.765Z,543.00
2024-03-26T06:40:21.761Z,538.00
2024-03-26T06:41:21.760Z,538.00
2024-03-26T06:42:21.774Z,538.00
2024-03-26T06:43:21.771Z,538.00
2024-03-26T06:44:21.779Z,538.00
2024-03-26T06:45:21.762Z,541.00
2024-03-26T06:46:23.994Z,540.00
2024-03-26T06:47:21.876Z,540.00
2024-03-26T06:48:21.888Z,539.00
2024-03-26T06:49:21.966Z,537.00
2024-03-26T06:50:22.003Z,538.00
2024-03-26T06:51:22.022Z,540.00
2024-03-26T06:52:22.028Z,539.00
2024-03-26T06:53:22.052Z,538.00
2024-03-26T06:54:22.085Z,540.00
2024-03-26T06:55:22.098Z,541.00
2024-03-26T06:56:22.120Z,539.00
2024-03-26T06:57:22.197Z,538.00
2024-03-26T06:58:22.215Z,537.00
2024-03-26T06:59:22.263Z,537.00
2024-03-26T07:00:22.305Z,539.00
2024-03-26T07:01:22.373Z,536.00
2024-03-26T07:02:22.440Z,537.00
2024-03-26T07:03:22.494Z,534.00
2024-03-26T07:04:22.564Z,533.00
2024-03-26T07:05:22.666Z,533.00
2024-03-26T07:06:22.726Z,533.00
2024-03-26T07:07:22.822Z,535.00
2024-03-26T07:08:22.903Z,534.00
2024-03-26T07:09:23.001Z,535.00
2024-03-26T07:10:23.090Z,537.00
2024-03-26T07:11:23.165Z,535.00
2024-03-26T07:12:23.217Z,536.00
2024-03-26T07:13:23.278Z,537.00
2024-03-26T07:14:23.341Z,538.00
2024-03-26T07:15:23.369Z,536.00
2024-03-26T07:16:23.426Z,539.00
2024-03-26T07:17:23.491Z,539.00
2024-03-26T07:18:23.551Z,541.00
2024-03-26T07:19:23.650Z,540.00
2024-03-26T07:20:23.734Z,542.00
2024-03-26T07:21:23.820Z,543.00
2024-03-26T07:22:23.897Z,542.00
2024-03-26T07:23:23.992Z,539.00
2024-03-26T07:24:24.069Z,542.00
2024-03-26T07:25:24.125Z,544.00
2024-03-26T07:26:24.201Z,545.00
2024-03-26T07:27:24.292Z,546.00
2024-03-26T07:28:24.354Z,547.00
2024-03-26T07:29:24.408Z,546.00
2024-03-26T07:30:24.463Z,545.00
2024-03-26T07:31:24.538Z,545.00
2024-03-26T07:32:24.637Z,545.00
2024-03-26T07:33:24.716Z,545.00
2024-03-26T07:34:24.797Z,546.00
2024-03-26T07:35:24.874Z,544.00
2024-03-26T07:36:24.964Z,543.00
2024-03-26T07:37:25.052Z,541.00
2024-03-26T07:38:25.158Z,540.00
2024-03-26T07:39:25.220Z,540.00
2024-03-26T07:40:25.268Z,540.00
2024-03-26T07:41:25.375Z,542.00
2024-03-26T07:42:25.392Z,544.00
2024-03-26T07:43:25.807Z,543.00
2024-03-26T07:44:25.545Z,540.00
2024-03-26T07:45:25.602Z,538.00
2024-03-26T07:46:25.695Z,539.00
2024-03-26T07:47:25.785Z,541.00
2024-03-26T07:48:27.046Z,540.00
2024-03-26T07:49:26.006Z,539.00
2024-03-26T07:50:26.029Z,538.00
2024-03-26T07:51:26.243Z,539.00
2024-03-26T07:52:26.249Z,540.00
2024-03-26T07:53:26.354Z,539.00
2024-03-26T07:54:26.362Z,541.00
2024-03-26T07:55:26.439Z,542.00
2024-03-26T07:56:26.532Z,541.00
2024-03-26T07:57:26.529Z,539.00
2024-03-26T07:58:26.644Z,539.00
2024-03-26T07:59:26.709Z,538.00
2024-03-26T08:00:26.812Z,539.00
2024-03-26T08:01:27.024Z,539.00
2024-03-26T08:02:27.043Z,537.00
2024-03-26T08:03:27.152Z,539.00
2024-03-26T08:04:27.229Z,540.00
2024-03-26T08:05:27.344Z,541.00
2024-03-26T08:06:27.448Z,540.00
2024-03-26T08:07:27.530Z,544.00
2024-03-26T08:08:27.586Z,544.00
2024-03-26T08:09:27.706Z,545.00
2024-03-26T08:10:27.751Z,545.00
2024-03-26T08:11:27.798Z,544.00
2024-03-26T08:12:27.845Z,543.00
2024-03-26T08:13:27.939Z,544.00
2024-03-26T08:14:28.044Z,545.00
2024-03-26T08:15:28.148Z,547.00
2024-03-26T08:16:28.206Z,548.00
2024-03-26T08:17:28.334Z,546.00
2024-03-26T08:18:28.500Z,546.00
2024-03-26T08:19:28.507Z,545.00
2024-03-26T08:20:28.621Z,542.00
2024-03-26T08:21:28.732Z,541.00
2024-03-26T08:22:28.811Z,540.00
2024-03-26T08:23:28.861Z,540.00
2024-03-26T08:25:05.712Z,550.00
2024-03-26T08:26:05.539Z,539.00
2024-03-26T08:27:05.550Z,539.00
2024-03-26T08:28:05.533Z,542.00
2024-03-26T08:29:05.541Z,543.00
2024-03-26T08:30:07.123Z,539.00
2024-03-26T08:31:05.555Z,537.00
2024-03-26T08:32:05.593Z,538.00
2024-03-26T08:33:05.612Z,542.00
2024-03-26T08:34:05.578Z,541.00
2024-03-26T08:35:05.567Z,540.00
2024-03-26T08:36:05.752Z,538.00
2024-03-26T08:37:05.598Z,541.00
2024-03-26T08:38:05.573Z,545.00
2024-03-26T08:39:05.659Z,546.00
2024-03-26T08:40:05.588Z,544.00
2024-03-26T08:41:05.601Z,545.00
2024-03-26T08:42:15.624Z,546.00
2024-03-26T08:43:05.605Z,544.00
2024-03-26T08:44:05.597Z,545.00
2024-03-26T08:45:08.203Z,544.00
2024-03-26T08:46:05.596Z,541.00
2024-03-26T08:47:05.621Z,544.00
2024-03-26T08:48:05.626Z,543.00
2024-03-26T08:49:06.158Z,541.00
2024-03-26T08:50:05.612Z,539.00
2024-03-26T08:51:05.599Z,541.00
2024-03-26T08:52:05.609Z,541.00
2024-03-26T08:53:05.601Z,538.00
2024-03-26T08:54:05.600Z,537.00
2024-03-26T08:55:05.609Z,537.00
2024-03-26T08:56:15.206Z,535.00
2024-03-26T08:57:06.625Z,537.00
2024-03-26T08:58:05.605Z,535.00
2024-03-26T08:59:05.605Z,536.00
2024-03-26T09:00:05.612Z,538.00
2024-03-26T09:01:05.614Z,540.00
2024-03-26T09:02:05.641Z,541.00
2024-03-26T09:03:05.726Z,541.00
2024-03-26T09:04:05.662Z,541.00
2024-03-26T09:05:05.671Z,539.00
2024-03-26T09:06:05.659Z,538.00
2024-03-26T09:07:05.663Z,537.00
2024-03-26T09:08:05.700Z,539.00
2024-03-26T09:09:05.803Z,539.00
2024-03-26T09:10:05.924Z,536.00
2024-03-26T09:11:06.021Z,538.00
2024-03-26T09:12:06.123Z,538.00
2024-03-26T09:13:06.203Z,536.00
2024-03-26T09:14:06.267Z,536.00
2024-03-26T09:15:06.330Z,536.00
2024-03-26T09:16:06.404Z,535.00
2024-03-26T09:17:06.415Z,534.00
2024-03-26T09:18:06.552Z,534.00
2024-03-26T09:19:06.570Z,535.00
2024-03-26T09:20:06.666Z,534.00
2024-03-26T09:21:06.791Z,536.00
2024-03-26T09:22:06.889Z,537.00
2024-03-26T09:23:06.989Z,540.00
2024-03-26T09:24:08.655Z,540.00
2024-03-26T09:25:07.116Z,539.00
2024-03-26T09:26:07.148Z,536.00
2024-03-26T09:27:07.196Z,536.00
2024-03-26T09:28:07.309Z,536.00
2024-03-26T09:29:07.269Z,538.00
2024-03-26T09:30:07.291Z,539.00
2024-03-26T09:31:09.575Z,541.00
2024-03-26T09:32:07.333Z,542.00
2024-03-26T09:33:07.335Z,539.00
2024-03-26T09:34:07.329Z,539.00
2024-03-26T09:35:07.338Z,540.00
2024-03-26T09:36:07.334Z,541.00
2024-03-26T09:37:07.327Z,545.00
2024-03-26T09:38:07.332Z,545.00
2024-03-26T09:39:08.745Z,543.00
2024-03-26T09:40:07.888Z,544.00
2024-03-26T09:41:07.326Z,542.00
2024-03-26T09:42:07.330Z,542.00
2024-03-26T09:43:07.327Z,542.00
2024-03-26T09:44:07.353Z,543.00
2024-03-26T09:45:08.005Z,545.00
2024-03-26T09:46:08.457Z,546.00
2024-03-26T09:47:07.475Z,547.00
2024-03-26T09:48:07.562Z,549.00
2024-03-26T09:49:07.620Z,548.00
2024-03-26T09:50:07.706Z,547.00
2024-03-26T09:51:07.762Z,546.00
2024-03-26T09:52:07.883Z,546.00
2024-03-26T09:53:08.005Z,544.00
2024-03-26T09:54:08.126Z,544.00
2024-03-26T09:55:08.203Z,542.00
2024-03-26T09:56:08.339Z,542.00
2024-03-26T09:57:08.456Z,541.00
2024-03-26T09:58:08.560Z,541.00
2024-03-26T09:59:08.669Z,540.00
2024-03-26T10:00:08.783Z,542.00
2024-03-26T10:01:08.892Z,543.00
2024-03-26T10:02:09.073Z,546.00
2024-03-26T10:03:09.144Z,547.00
2024-03-26T10:04:09.269Z,545.00
2024-03-26T10:05:09.363Z,543.00
2024-03-26T10:06:09.533Z,545.00
2024-03-26T10:07:09.551Z,548.00
2024-03-26T10:08:09.614Z,547.00
2024-03-26T10:09:09.691Z,546.00
2024-03-26T10:10:09.776Z,546.00
2024-03-26T10:11:09.824Z,545.00
2024-03-26T10:12:09.882Z,544.00
2024-03-26T10:13:09.927Z,543.00
2024-03-26T10:14:09.981Z,540.00
2024-03-26T10:15:10.089Z,541.00
2024-03-26T10:16:10.199Z,543.00
2024-03-26T10:17:10.326Z,548.00
2024-03-26T10:18:10.429Z,551.00
2024-03-26T10:19:10.539Z,548.00
2024-03-26T10:20:10.658Z,547.00
2024-03-26T10:21:10.753Z,545.00
2024-03-26T10:22:10.874Z,543.00
2024-03-26T10:23:11.000Z,543.00
2024-03-26T10:24:11.114Z,543.00
2024-03-26T10:25:11.227Z,543.00
2024-03-26T10:26:11.336Z,543.00
2024-03-26T10:27:11.464Z,545.00
2024-03-26T10:28:11.581Z,546.00
2024-03-26T10:29:12.356Z,544.00
2024-03-26T10:30:11.686Z,549.00
2024-03-26T10:31:11.722Z,546.00
2024-03-26T10:32:11.806Z,547.00
2024-03-26T10:33:11.956Z,549.00
2024-03-26T10:34:12.039Z,548.00
2024-03-26T10:35:12.276Z,548.00
2024-03-26T10:36:12.291Z,546.00
2024-03-26T10:37:12.371Z,546.00
2024-03-26T10:38:17.154Z,543.00
2024-03-26T10:39:13.505Z,541.00
2024-03-26T10:40:12.514Z,541.00
2024-03-26T10:41:12.499Z,541.00
2024-03-26T10:42:12.502Z,542.00
2024-03-26T10:43:12.503Z,541.00
2024-03-26T10:44:12.517Z,542.00
2024-03-26T10:45:13.831Z,542.00
2024-03-26T10:46:12.501Z,541.00
2024-03-26T10:47:15.157Z,540.00
2024-03-26T10:48:12.542Z,539.00
2024-03-26T10:49:12.503Z,537.00
2024-03-26T10:50:12.504Z,537.00
2024-03-26T10:51:12.530Z,534.00
2024-03-26T10:52:12.537Z,536.00
2024-03-26T10:53:12.558Z,536.00
2024-03-26T10:54:12.548Z,533.00
2024-03-26T10:55:12.573Z,532.00
2024-03-26T10:56:12.539Z,535.00
2024-03-26T10:57:12.537Z,537.00
2024-03-26T10:58:12.540Z,536.00
2024-03-26T10:59:12.544Z,538.00
2024-03-26T11:00:12.588Z,539.00
2024-03-26T11:01:12.552Z,539.00
2024-03-26T11:02:12.555Z,540.00
2024-03-26T11:03:12.543Z,539.00
2024-03-26T11:04:12.543Z,540.00
2024-03-26T11:05:12.553Z,540.00
2024-03-26T11:06:12.565Z,540.00
2024-03-26T11:07:12.563Z,541.00
2024-03-26T11:08:13.152Z,536.00
2024-03-26T11:09:12.565Z,533.00
2024-03-26T11:10:12.561Z,534.00
2024-03-26T11:11:12.560Z,535.00
2024-03-26T11:12:16.675Z,536.00
2024-03-26T11:13:12.583Z,534.00
2024-03-26T11:14:12.572Z,533.00
2024-03-26T11:15:12.573Z,532.00
2024-03-26T11:16:12.559Z,529.00
2024-03-26T11:17:12.565Z,528.00
2024-03-26T11:18:12.563Z,527.00
2024-03-26T11:19:12.566Z,530.00
2024-03-26T11:20:12.574Z,530.00
2024-03-26T11:21:12.569Z,530.00
2024-03-26T11:22:12.559Z,530.00
2024-03-26T11:23:12.599Z,533.00
2024-03-26T11:24:12.611Z,534.00
2024-03-26T11:25:12.616Z,535.00
2024-03-26T11:26:12.596Z,535.00
2024-03-26T11:27:12.632Z,535.00
2024-03-26T11:28:12.636Z,532.00
2024-03-26T11:29:12.620Z,537.00
2024-03-26T11:30:12.617Z,538.00
2024-03-26T11:31:12.613Z,537.00
2024-03-26T11:32:12.615Z,534.00
2024-03-26T11:33:12.640Z,535.00
2024-03-26T11:34:12.614Z,535.00
2024-03-26T11:35:12.617Z,535.00
2024-03-26T11:36:12.603Z,536.00
2024-03-26T11:37:12.623Z,534.00
2024-03-26T11:38:12.843Z,535.00
2024-03-26T11:39:12.843Z,534.00
2024-03-26T11:40:12.950Z,534.00
2024-03-26T11:41:13.036Z,535.00
2024-03-26T11:42:13.158Z,536.00
2024-03-26T11:43:13.263Z,535.00
2024-03-26T11:44:13.399Z,530.00
2024-03-26T11:45:13.509Z,530.00
2024-03-26T11:46:14.231Z,533.00
2024-03-26T11:47:13.763Z,534.00
2024-03-26T11:48:13.871Z,534.00
2024-03-26T11:49:13.988Z,535.00
2024-03-26T11:50:14.097Z,538.00
2024-03-26T11:51:14.212Z,539.00
2024-03-26T11:52:14.337Z,540.00
2024-03-26T11:53:14.458Z,541.00
2024-03-26T11:54:14.556Z,540.00
2024-03-26T11:55:14.684Z,540.00
2024-03-26T11:56:14.816Z,537.00
2024-03-26T11:57:14.925Z,537.00
2024-03-26T11:58:15.061Z,537.00
2024-03-26T11:59:15.191Z,536.00
2024-03-26T12:00:15.286Z,537.00
2024-03-26T12:01:15.423Z,537.00
2024-03-26T12:02:15.509Z,538.00
2024-03-26T12:03:15.630Z,538.00
2024-03-26T12:04:15.783Z,537.00
2024-03-26T12:05:15.855Z,536.00
2024-03-26T12:06:15.982Z,537.00
2024-03-26T12:07:16.143Z,538.00
2024-03-26T12:08:16.220Z,537.00
2024-03-26T12:09:16.342Z,539.00
2024-03-26T12:10:16.444Z,540.00
2024-03-26T12:11:16.551Z,541.00
2024-03-26T12:12:21.715Z,543.00
2024-03-26T12:13:16.697Z,541.00
2024-03-26T12:14:16.694Z,541.00
2024-03-26T12:15:16.735Z,542.00
2024-03-26T12:16:19.384Z,543.00
2024-03-26T12:17:16.746Z,543.00
2024-03-26T12:18:16.752Z,540.00
2024-03-26T12:19:16.740Z,541.00
2024-03-26T12:20:16.744Z,540.00
2024-03-26T12:21:16.762Z,542.00
2024-03-26T12:22:16.763Z,539.00
2024-03-26T12:23:16.759Z,541.00
2024-03-26T12:24:16.750Z,541.00
2024-03-26T12:25:16.794Z,541.00
2024-03-26T12:26:16.755Z,542.00
2024-03-26T12:27:16.765Z,541.00
2024-03-26T12:28:16.750Z,540.00
2024-03-26T12:29:16.767Z,538.00
2024-03-26T12:30:16.752Z,540.00